sensor_id;sensor_type;location;lat;lon;timestamp;P1;durP1;ratioP1;P2;durP2;ratioP2
22121;SDS011;11227;53.046;10.512;2022-10-31T00:01:49;2.60;;;2.13;;
22121;SDS011;11227;53.046;10.512;2022-10-31T00:05:50;2.40;;;2.20;;
22121;SDS011;11227;53.046;10.512;2022-10-31T00:09:52;3.13;;;2.35;;
22121;SDS011;11227;53.046;10.512;2022-10-31T00:13:54;2.33;;;2.08;;
22121;SDS011;11227;53.046;10.512;2022-10-31T00:17:58;2.22;;;2.03;;
22121;SDS011;11227;53.046;10.512;2022-10-31T00:22:00;2.10;;;1.83;;
22121;SDS011;11227;53.046;10.512;2022-10-31T00:26:02;3.78;;;2.28;;
22121;SDS011;11227;53.046;10.512;2022-10-31T00:30:05;2.28;;;2.00;;
22121;SDS011;11227;53.046;10.512;2022-10-31T00:34:07;2.90;;;2.15;;
22121;SDS011;11227;53.046;10.512;2022-10-31T00:38:08;2.75;;;2.50;;
22121;SDS011;11227;53.046;10.512;2022-10-31T00:42:10;2.42;;;1.95;;
22121;SDS011;11227;53.046;10.512;2022-10-31T00:46:12;3.42;;;1.88;;
22121;SDS011;11227;53.046;10.512;2022-10-31T00:50:14;2.53;;;2.15;;
22121;SDS011;11227;53.046;10.512;2022-10-31T00:54:15;2.65;;;2.17;;
22121;SDS011;11227;53.046;10.512;2022-10-31T00:58:17;2.25;;;1.80;;
22121;SDS011;11227;53.046;10.512;2022-10-31T01:02:18;2.97;;;2.30;;
22121;SDS011;11227;53.046;10.512;2022-10-31T01:06:20;3.28;;;1.98;;
22121;SDS011;11227;53.046;10.512;2022-10-31T01:10:22;2.80;;;2.42;;
22121;SDS011;11227;53.046;10.512;2022-10-31T01:14:24;3.65;;;2.30;;
22121;SDS011;11227;53.046;10.512;2022-10-31T01:18:26;2.47;;;2.13;;
22121;SDS011;11227;53.046;10.512;2022-10-31T01:22:28;2.58;;;2.08;;
22121;SDS011;11227;53.046;10.512;2022-10-31T01:26:31;2.78;;;2.20;;
22121;SDS011;11227;53.046;10.512;2022-10-31T01:30:34;2.30;;;2.10;;
22121;SDS011;11227;53.046;10.512;2022-10-31T01:34:35;3.40;;;2.35;;
22121;SDS011;11227;53.046;10.512;2022-10-31T01:38:37;3.05;;;2.22;;
22121;SDS011;11227;53.046;10.512;2022-10-31T01:42:39;2.95;;;2.70;;
22121;SDS011;11227;53.046;10.512;2022-10-31T01:46:43;2.58;;;2.10;;
22121;SDS011;11227;53.046;10.512;2022-10-31T01:50:48;2.25;;;1.83;;
22121;SDS011;11227;53.046;10.512;2022-10-31T01:54:59;2.28;;;2.08;;
22121;SDS011;11227;53.046;10.512;2022-10-31T01:59:05;2.88;;;2.08;;
22121;SDS011;11227;53.046;10.512;2022-10-31T02:03:12;2.72;;;2.25;;
22121;SDS011;11227;53.046;10.512;2022-10-31T02:07:14;3.42;;;2.17;;
22121;SDS011;11227;53.046;10.512;2022-10-31T02:11:22;5.15;;;2.90;;
22121;SDS011;11227;53.046;10.512;2022-10-31T02:15:24;2.83;;;2.53;;
22121;SDS011;11227;53.046;10.512;2022-10-31T02:19:38;3.58;;;2.60;;
22121;SDS011;11227;53.046;10.512;2022-10-31T02:28:18;5.88;;;3.80;;
22121;SDS011;11227;53.046;10.512;2022-10-31T02:37:37;4.78;;;3.42;;
22121;SDS011;11227;53.046;10.512;2022-10-31T02:46:21;4.57;;;3.08;;
22121;SDS011;11227;53.046;10.512;2022-10-31T02:50:39;5.00;;;3.03;;
22121;SDS011;11227;53.046;10.512;2022-10-31T02:54:46;5.43;;;3.25;;
22121;SDS011;11227;53.046;10.512;2022-10-31T02:58:49;4.55;;;3.05;;
22121;SDS011;11227;53.046;10.512;2022-10-31T03:07:25;5.05;;;3.58;;
22121;SDS011;11227;53.046;10.512;2022-10-31T03:12:07;5.60;;;3.30;;
22121;SDS011;11227;53.046;10.512;2022-10-31T03:20:22;4.20;;;2.97;;
22121;SDS011;11227;53.046;10.512;2022-10-31T03:24:28;4.15;;;3.25;;
22121;SDS011;11227;53.046;10.512;2022-10-31T03:28:34;4.10;;;3.15;;
22121;SDS011;11227;53.046;10.512;2022-10-31T03:32:55;4.35;;;3.10;;
22121;SDS011;11227;53.046;10.512;2022-10-31T03:37:01;4.07;;;3.08;;
22121;SDS011;11227;53.046;10.512;2022-10-31T03:41:05;3.78;;;3.22;;
22121;SDS011;11227;53.046;10.512;2022-10-31T03:45:12;4.88;;;3.35;;
22121;SDS011;11227;53.046;10.512;2022-10-31T03:49:22;5.30;;;2.80;;
22121;SDS011;11227;53.046;10.512;2022-10-31T03:53:25;4.30;;;3.35;;
22121;SDS011;11227;53.046;10.512;2022-10-31T03:57:40;4.00;;;2.55;;
22121;SDS011;11227;53.046;10.512;2022-10-31T04:01:48;5.20;;;3.17;;
22121;SDS011;11227;53.046;10.512;2022-10-31T04:05:54;4.60;;;3.08;;
22121;SDS011;11227;53.046;10.512;2022-10-31T04:09:57;3.70;;;3.28;;
22121;SDS011;11227;53.046;10.512;2022-10-31T04:14:03;5.50;;;4.03;;
22121;SDS011;11227;53.046;10.512;2022-10-31T04:18:06;5.93;;;3.53;;
22121;SDS011;11227;53.046;10.512;2022-10-31T04:22:08;6.60;;;3.97;;
22121;SDS011;11227;53.046;10.512;2022-10-31T04:26:10;5.53;;;4.13;;
22121;SDS011;11227;53.046;10.512;2022-10-31T04:30:13;4.13;;;3.40;;
22121;SDS011;11227;53.046;10.512;2022-10-31T04:34:15;5.80;;;3.97;;
22121;SDS011;11227;53.046;10.512;2022-10-31T04:38:16;4.65;;;3.45;;
22121;SDS011;11227;53.046;10.512;2022-10-31T04:42:18;5.78;;;3.58;;
22121;SDS011;11227;53.046;10.512;2022-10-31T04:50:22;5.28;;;3.83;;
22121;SDS011;11227;53.046;10.512;2022-10-31T04:54:24;6.07;;;3.72;;
22121;SDS011;11227;53.046;10.512;2022-10-31T04:58:26;8.80;;;3.95;;
22121;SDS011;11227;53.046;10.512;2022-10-31T05:02:28;6.13;;;3.83;;
22121;SDS011;11227;53.046;10.512;2022-10-31T05:06:30;4.68;;;3.72;;
22121;SDS011;11227;53.046;10.512;2022-10-31T05:10:31;5.50;;;3.83;;
22121;SDS011;11227;53.046;10.512;2022-10-31T05:14:33;6.80;;;3.85;;
22121;SDS011;11227;53.046;10.512;2022-10-31T05:18:35;6.13;;;4.10;;
22121;SDS011;11227;53.046;10.512;2022-10-31T05:22:36;5.65;;;4.20;;
22121;SDS011;11227;53.046;10.512;2022-10-31T05:26:38;6.05;;;4.05;;
22121;SDS011;11227;53.046;10.512;2022-10-31T05:30:40;4.93;;;3.80;;
22121;SDS011;11227;53.046;10.512;2022-10-31T05:34:41;5.22;;;3.22;;
22121;SDS011;11227;53.046;10.512;2022-10-31T05:38:43;5.25;;;3.90;;
22121;SDS011;11227;53.046;10.512;2022-10-31T05:42:45;6.60;;;3.80;;
22121;SDS011;11227;53.046;10.512;2022-10-31T05:46:47;5.40;;;3.50;;
22121;SDS011;11227;53.046;10.512;2022-10-31T05:50:49;6.10;;;3.45;;
22121;SDS011;11227;53.046;10.512;2022-10-31T05:54:50;6.80;;;3.90;;
22121;SDS011;11227;53.046;10.512;2022-10-31T05:58:52;4.68;;;3.42;;
22121;SDS011;11227;53.046;10.512;2022-10-31T06:03:00;5.80;;;3.90;;
22121;SDS011;11227;53.046;10.512;2022-10-31T06:07:03;5.97;;;4.20;;
22121;SDS011;11227;53.046;10.512;2022-10-31T06:11:04;4.70;;;3.90;;
22121;SDS011;11227;53.046;10.512;2022-10-31T06:15:06;5.63;;;3.63;;
22121;SDS011;11227;53.046;10.512;2022-10-31T06:19:09;4.85;;;3.85;;
22121;SDS011;11227;53.046;10.512;2022-10-31T06:23:11;3.95;;;3.20;;
22121;SDS011;11227;53.046;10.512;2022-10-31T06:27:13;5.25;;;3.40;;
22121;SDS011;11227;53.046;10.512;2022-10-31T06:31:14;5.18;;;3.85;;
22121;SDS011;11227;53.046;10.512;2022-10-31T06:35:16;6.63;;;3.90;;
22121;SDS011;11227;53.046;10.512;2022-10-31T06:39:18;4.45;;;3.67;;
22121;SDS011;11227;53.046;10.512;2022-10-31T06:43:20;5.63;;;3.95;;
22121;SDS011;11227;53.046;10.512;2022-10-31T06:47:23;5.07;;;3.65;;
22121;SDS011;11227;53.046;10.512;2022-10-31T06:51:25;6.57;;;4.07;;
22121;SDS011;11227;53.046;10.512;2022-10-31T06:55:27;3.30;;;2.92;;
22121;SDS011;11227;53.046;10.512;2022-10-31T06:59:28;4.15;;;3.25;;
22121;SDS011;11227;53.046;10.512;2022-10-31T07:03:30;4.00;;;3.20;;
22121;SDS011;11227;53.046;10.512;2022-10-31T07:07:32;4.35;;;3.55;;
22121;SDS011;11227;53.046;10.512;2022-10-31T07:11:33;6.22;;;3.45;;
22121;SDS011;11227;53.046;10.512;2022-10-31T07:15:36;4.13;;;3.20;;
22121;SDS011;11227;53.046;10.512;2022-10-31T07:19:38;3.83;;;3.35;;
22121;SDS011;11227;53.046;10.512;2022-10-31T07:23:40;4.68;;;3.00;;
22121;SDS011;11227;53.046;10.512;2022-10-31T07:27:42;6.55;;;3.28;;
22121;SDS011;11227;53.046;10.512;2022-10-31T07:31:45;4.95;;;3.35;;
22121;SDS011;11227;53.046;10.512;2022-10-31T07:35:47;4.50;;;3.45;;
22121;SDS011;11227;53.046;10.512;2022-10-31T07:39:48;4.57;;;3.13;;
22121;SDS011;11227;53.046;10.512;2022-10-31T07:43:50;5.18;;;3.22;;
22121;SDS011;11227;53.046;10.512;2022-10-31T07:47:57;4.45;;;3.03;;
22121;SDS011;11227;53.046;10.512;2022-10-31T07:51:59;4.45;;;3.53;;
22121;SDS011;11227;53.046;10.512;2022-10-31T07:56:01;4.57;;;3.38;;
22121;SDS011;11227;53.046;10.512;2022-10-31T08:00:06;4.32;;;3.13;;
22121;SDS011;11227;53.046;10.512;2022-10-31T08:04:10;3.72;;;3.08;;
22121;SDS011;11227;53.046;10.512;2022-10-31T08:08:11;4.25;;;3.20;;
22121;SDS011;11227;53.046;10.512;2022-10-31T08:12:14;5.10;;;3.15;;
22121;SDS011;11227;53.046;10.512;2022-10-31T08:16:16;5.53;;;3.40;;
22121;SDS011;11227;53.046;10.512;2022-10-31T08:20:17;5.32;;;2.70;;
22121;SDS011;11227;53.046;10.512;2022-10-31T08:24:19;3.72;;;2.67;;
22121;SDS011;11227;53.046;10.512;2022-10-31T08:28:24;4.03;;;2.80;;
22121;SDS011;11227;53.046;10.512;2022-10-31T08:32:25;3.22;;;2.88;;
22121;SDS011;11227;53.046;10.512;2022-10-31T08:36:27;3.65;;;3.17;;
22121;SDS011;11227;53.046;10.512;2022-10-31T08:40:30;3.35;;;3.03;;
22121;SDS011;11227;53.046;10.512;2022-10-31T08:44:33;3.67;;;3.30;;
22121;SDS011;11227;53.046;10.512;2022-10-31T08:48:34;4.20;;;3.13;;
22121;SDS011;11227;53.046;10.512;2022-10-31T08:52:36;6.68;;;3.10;;
22121;SDS011;11227;53.046;10.512;2022-10-31T08:56:58;4.05;;;2.65;;
22121;SDS011;11227;53.046;10.512;2022-10-31T09:01:00;4.25;;;3.20;;
22121;SDS011;11227;53.046;10.512;2022-10-31T09:05:02;6.10;;;3.13;;
22121;SDS011;11227;53.046;10.512;2022-10-31T09:09:04;3.85;;;2.90;;
22121;SDS011;11227;53.046;10.512;2022-10-31T09:13:07;6.65;;;3.33;;
22121;SDS011;11227;53.046;10.512;2022-10-31T09:17:16;5.20;;;3.20;;
22121;SDS011;11227;53.046;10.512;2022-10-31T09:21:17;5.63;;;2.90;;
22121;SDS011;11227;53.046;10.512;2022-10-31T09:25:19;4.80;;;2.90;;
22121;SDS011;11227;53.046;10.512;2022-10-31T09:29:21;5.25;;;2.88;;
22121;SDS011;11227;53.046;10.512;2022-10-31T09:33:22;4.00;;;3.17;;
22121;SDS011;11227;53.046;10.512;2022-10-31T09:37:24;4.28;;;2.65;;
22121;SDS011;11227;53.046;10.512;2022-10-31T09:46:05;3.45;;;2.80;;
22121;SDS011;11227;53.046;10.512;2022-10-31T09:50:24;5.50;;;3.08;;
22121;SDS011;11227;53.046;10.512;2022-10-31T09:58:54;3.20;;;2.90;;
22121;SDS011;11227;53.046;10.512;2022-10-31T10:03:02;3.33;;;2.90;;
22121;SDS011;11227;53.046;10.512;2022-10-31T10:11:55;4.45;;;2.92;;
22121;SDS011;11227;53.046;10.512;2022-10-31T10:16:22;4.30;;;2.60;;
22121;SDS011;11227;53.046;10.512;2022-10-31T10:20:42;3.50;;;2.47;;
22121;SDS011;11227;53.046;10.512;2022-10-31T10:25:02;4.70;;;2.50;;
22121;SDS011;11227;53.046;10.512;2022-10-31T10:29:24;4.53;;;2.83;;
22121;SDS011;11227;53.046;10.512;2022-10-31T10:42:01;3.58;;;2.83;;
22121;SDS011;11227;53.046;10.512;2022-10-31T10:51:47;4.13;;;2.83;;
22121;SDS011;11227;53.046;10.512;2022-10-31T11:00:55;4.22;;;2.90;;
22121;SDS011;11227;53.046;10.512;2022-10-31T11:04:58;3.97;;;2.65;;
22121;SDS011;11227;53.046;10.512;2022-10-31T11:09:08;3.88;;;2.65;;
22121;SDS011;11227;53.046;10.512;2022-10-31T11:21:31;4.32;;;2.80;;
22121;SDS011;11227;53.046;10.512;2022-10-31T11:25:35;4.15;;;2.60;;
22121;SDS011;11227;53.046;10.512;2022-10-31T11:29:37;5.00;;;3.45;;
22121;SDS011;11227;53.046;10.512;2022-10-31T11:37:46;5.18;;;3.00;;
22121;SDS011;11227;53.046;10.512;2022-10-31T11:41:51;3.92;;;2.70;;
22121;SDS011;11227;53.046;10.512;2022-10-31T11:45:55;4.22;;;3.00;;
22121;SDS011;11227;53.046;10.512;2022-10-31T11:49:57;4.00;;;2.88;;
22121;SDS011;11227;53.046;10.512;2022-10-31T11:54:04;4.00;;;2.60;;
22121;SDS011;11227;53.046;10.512;2022-10-31T11:58:23;5.45;;;3.13;;
22121;SDS011;11227;53.046;10.512;2022-10-31T12:02:26;5.47;;;2.95;;
22121;SDS011;11227;53.046;10.512;2022-10-31T12:06:29;4.97;;;2.95;;
22121;SDS011;11227;53.046;10.512;2022-10-31T12:10:37;5.35;;;2.55;;
22121;SDS011;11227;53.046;10.512;2022-10-31T12:15:12;3.13;;;2.80;;
22121;SDS011;11227;53.046;10.512;2022-10-31T12:57:56;4.78;;;3.10;;
22121;SDS011;11227;53.046;10.512;2022-10-31T13:02:10;3.25;;;2.70;;
22121;SDS011;11227;53.046;10.512;2022-10-31T13:06:16;4.75;;;2.70;;
22121;SDS011;11227;53.046;10.512;2022-10-31T13:10:33;5.43;;;3.20;;
22121;SDS011;11227;53.046;10.512;2022-10-31T13:14:50;5.13;;;3.05;;
22121;SDS011;11227;53.046;10.512;2022-10-31T13:19:03;4.75;;;3.00;;
22121;SDS011;11227;53.046;10.512;2022-10-31T13:23:31;5.28;;;3.55;;
22121;SDS011;11227;53.046;10.512;2022-10-31T13:27:54;5.43;;;3.13;;
22121;SDS011;11227;53.046;10.512;2022-10-31T13:32:05;9.35;;;5.72;;
22121;SDS011;11227;53.046;10.512;2022-10-31T13:40:30;7.80;;;4.85;;
22121;SDS011;11227;53.046;10.512;2022-10-31T13:44:37;13.40;;;8.88;;
22121;SDS011;11227;53.046;10.512;2022-10-31T13:48:39;16.67;;;10.30;;
22121;SDS011;11227;53.046;10.512;2022-10-31T13:52:43;17.02;;;10.05;;
22121;SDS011;11227;53.046;10.512;2022-10-31T13:56:47;24.35;;;14.43;;
22121;SDS011;11227;53.046;10.512;2022-10-31T14:01:03;21.52;;;13.73;;
22121;SDS011;11227;53.046;10.512;2022-10-31T14:05:21;37.53;;;20.38;;
22121;SDS011;11227;53.046;10.512;2022-10-31T14:09:28;30.98;;;18.25;;
22121;SDS011;11227;53.046;10.512;2022-10-31T14:13:34;29.20;;;17.73;;
22121;SDS011;11227;53.046;10.512;2022-10-31T14:17:52;34.08;;;20.40;;
22121;SDS011;11227;53.046;10.512;2022-10-31T14:21:58;36.00;;;21.02;;
22121;SDS011;11227;53.046;10.512;2022-10-31T14:26:33;37.38;;;22.05;;
22121;SDS011;11227;53.046;10.512;2022-10-31T14:30:27;40.28;;;22.95;;
22121;SDS011;11227;53.046;10.512;2022-10-31T14:34:33;35.72;;;21.40;;
22121;SDS011;11227;53.046;10.512;2022-10-31T14:38:54;37.15;;;22.35;;
22121;SDS011;11227;53.046;10.512;2022-10-31T14:43:12;38.63;;;23.10;;
22121;SDS011;11227;53.046;10.512;2022-10-31T14:47:46;39.65;;;23.52;;
22121;SDS011;11227;53.046;10.512;2022-10-31T14:52:08;37.10;;;22.33;;
22121;SDS011;11227;53.046;10.512;2022-10-31T14:56:20;37.70;;;22.75;;
22121;SDS011;11227;53.046;10.512;2022-10-31T15:00:30;37.58;;;22.40;;
22121;SDS011;11227;53.046;10.512;2022-10-31T15:04:34;37.33;;;21.42;;
22121;SDS011;11227;53.046;10.512;2022-10-31T15:08:43;41.22;;;24.42;;
22121;SDS011;11227;53.046;10.512;2022-10-31T15:12:46;39.60;;;23.48;;
22121;SDS011;11227;53.046;10.512;2022-10-31T15:16:48;35.83;;;21.42;;
22121;SDS011;11227;53.046;10.512;2022-10-31T15:20:50;38.42;;;22.73;;
22121;SDS011;11227;53.046;10.512;2022-10-31T15:24:54;44.53;;;22.98;;
22121;SDS011;11227;53.046;10.512;2022-10-31T15:28:58;46.17;;;23.30;;
22121;SDS011;11227;53.046;10.512;2022-10-31T15:33:16;38.42;;;22.67;;
22121;SDS011;11227;53.046;10.512;2022-10-31T15:37:22;44.00;;;22.35;;
22121;SDS011;11227;53.046;10.512;2022-10-31T15:45:30;44.75;;;21.95;;
22121;SDS011;11227;53.046;10.512;2022-10-31T15:49:34;46.17;;;23.60;;
22121;SDS011;11227;53.046;10.512;2022-10-31T15:53:41;49.50;;;22.97;;
22121;SDS011;11227;53.046;10.512;2022-10-31T15:57:52;50.30;;;22.30;;
22121;SDS011;11227;53.046;10.512;2022-10-31T16:02:01;44.88;;;22.23;;
22121;SDS011;11227;53.046;10.512;2022-10-31T16:06:05;49.15;;;21.27;;
22121;SDS011;11227;53.046;10.512;2022-10-31T16:10:21;49.03;;;22.45;;
22121;SDS011;11227;53.046;10.512;2022-10-31T16:14:26;47.63;;;21.38;;
22121;SDS011;11227;53.046;10.512;2022-10-31T16:18:30;49.42;;;21.70;;
22121;SDS011;11227;53.046;10.512;2022-10-31T16:22:37;43.97;;;20.75;;
22121;SDS011;11227;53.046;10.512;2022-10-31T16:26:40;40.63;;;21.23;;
22121;SDS011;11227;53.046;10.512;2022-10-31T16:30:43;54.00;;;19.67;;
22121;SDS011;11227;53.046;10.512;2022-10-31T16:39:10;52.58;;;20.95;;
22121;SDS011;11227;53.046;10.512;2022-10-31T16:43:13;39.80;;;17.92;;
22121;SDS011;11227;53.046;10.512;2022-10-31T16:47:16;44.38;;;19.17;;
22121;SDS011;11227;53.046;10.512;2022-10-31T16:51:18;34.42;;;16.88;;
22121;SDS011;11227;53.046;10.512;2022-10-31T16:55:20;41.58;;;17.67;;
22121;SDS011;11227;53.046;10.512;2022-10-31T16:59:22;32.60;;;15.88;;
22121;SDS011;11227;53.046;10.512;2022-10-31T17:03:23;35.55;;;16.05;;
22121;SDS011;11227;53.046;10.512;2022-10-31T17:07:25;32.65;;;15.30;;
22121;SDS011;11227;53.046;10.512;2022-10-31T17:11:27;31.50;;;14.45;;
22121;SDS011;11227;53.046;10.512;2022-10-31T17:15:30;27.13;;;15.07;;
22121;SDS011;11227;53.046;10.512;2022-10-31T17:19:38;30.25;;;14.43;;
22121;SDS011;11227;53.046;10.512;2022-10-31T17:23:40;30.95;;;13.82;;
22121;SDS011;11227;53.046;10.512;2022-10-31T17:27:44;24.23;;;12.80;;
22121;SDS011;11227;53.046;10.512;2022-10-31T17:31:47;27.02;;;13.23;;
22121;SDS011;11227;53.046;10.512;2022-10-31T17:35:49;29.88;;;13.02;;
22121;SDS011;11227;53.046;10.512;2022-10-31T17:39:51;28.42;;;12.63;;
22121;SDS011;11227;53.046;10.512;2022-10-31T17:43:54;28.52;;;12.80;;
22121;SDS011;11227;53.046;10.512;2022-10-31T17:47:56;28.23;;;12.55;;
22121;SDS011;11227;53.046;10.512;2022-10-31T17:51:58;26.27;;;12.73;;
22121;SDS011;11227;53.046;10.512;2022-10-31T17:56:03;26.50;;;11.95;;
22121;SDS011;11227;53.046;10.512;2022-10-31T18:00:13;23.77;;;11.57;;
22121;SDS011;11227;53.046;10.512;2022-10-31T18:04:16;27.10;;;10.73;;
22121;SDS011;11227;53.046;10.512;2022-10-31T18:08:18;19.88;;;10.75;;
22121;SDS011;11227;53.046;10.512;2022-10-31T18:12:19;25.55;;;10.73;;
22121;SDS011;11227;53.046;10.512;2022-10-31T18:16:21;20.15;;;9.85;;
22121;SDS011;11227;53.046;10.512;2022-10-31T18:20:23;22.35;;;10.25;;
22121;SDS011;11227;53.046;10.512;2022-10-31T18:24:25;22.98;;;9.15;;
22121;SDS011;11227;53.046;10.512;2022-10-31T18:28:29;24.42;;;9.85;;
22121;SDS011;11227;53.046;10.512;2022-10-31T18:32:30;23.70;;;10.55;;
22121;SDS011;11227;53.046;10.512;2022-10-31T18:36:32;21.80;;;9.82;;
22121;SDS011;11227;53.046;10.512;2022-10-31T18:40:34;19.63;;;9.65;;
22121;SDS011;11227;53.046;10.512;2022-10-31T18:44:36;22.33;;;9.02;;
22121;SDS011;11227;53.046;10.512;2022-10-31T18:48:39;19.42;;;8.65;;
22121;SDS011;11227;53.046;10.512;2022-10-31T18:52:42;17.88;;;8.98;;
22121;SDS011;11227;53.046;10.512;2022-10-31T18:56:43;18.60;;;8.98;;
22121;SDS011;11227;53.046;10.512;2022-10-31T19:00:45;21.00;;;9.15;;
22121;SDS011;11227;53.046;10.512;2022-10-31T19:04:47;15.68;;;8.27;;
22121;SDS011;11227;53.046;10.512;2022-10-31T19:08:49;16.10;;;7.90;;
22121;SDS011;11227;53.046;10.512;2022-10-31T19:12:56;15.82;;;9.20;;
22121;SDS011;11227;53.046;10.512;2022-10-31T19:16:58;19.60;;;8.82;;
22121;SDS011;11227;53.046;10.512;2022-10-31T19:21:05;17.45;;;9.27;;
22121;SDS011;11227;53.046;10.512;2022-10-31T19:25:09;15.80;;;8.75;;
22121;SDS011;11227;53.046;10.512;2022-10-31T19:29:11;17.40;;;9.82;;
22121;SDS011;11227;53.046;10.512;2022-10-31T19:33:13;19.45;;;10.35;;
22121;SDS011;11227;53.046;10.512;2022-10-31T19:37:14;20.83;;;10.02;;
22121;SDS011;11227;53.046;10.512;2022-10-31T19:41:23;20.60;;;9.77;;
22121;SDS011;11227;53.046;10.512;2022-10-31T19:45:26;18.75;;;9.98;;
22121;SDS011;11227;53.046;10.512;2022-10-31T19:49:28;21.02;;;10.00;;
22121;SDS011;11227;53.046;10.512;2022-10-31T19:53:30;18.73;;;10.63;;
22121;SDS011;11227;53.046;10.512;2022-10-31T19:57:32;17.10;;;9.50;;
22121;SDS011;11227;53.046;10.512;2022-10-31T20:01:56;16.52;;;10.18;;
22121;SDS011;11227;53.046;10.512;2022-10-31T20:05:58;18.40;;;10.50;;
22121;SDS011;11227;53.046;10.512;2022-10-31T20:10:03;20.00;;;11.17;;
22121;SDS011;11227;53.046;10.512;2022-10-31T20:14:05;21.08;;;9.63;;
22121;SDS011;11227;53.046;10.512;2022-10-31T20:18:08;18.65;;;10.52;;
22121;SDS011;11227;53.046;10.512;2022-10-31T20:22:10;18.60;;;10.80;;
22121;SDS011;11227;53.046;10.512;2022-10-31T20:26:13;17.35;;;10.02;;
22121;SDS011;11227;53.046;10.512;2022-10-31T20:30:19;18.73;;;10.27;;
22121;SDS011;11227;53.046;10.512;2022-10-31T20:34:20;14.95;;;9.65;;
22121;SDS011;11227;53.046;10.512;2022-10-31T20:38:22;20.33;;;9.77;;
22121;SDS011;11227;53.046;10.512;2022-10-31T20:42:24;18.83;;;9.63;;
22121;SDS011;11227;53.046;10.512;2022-10-31T20:46:25;16.95;;;9.52;;
22121;SDS011;11227;53.046;10.512;2022-10-31T20:50:27;15.70;;;9.45;;
22121;SDS011;11227;53.046;10.512;2022-10-31T20:54:29;14.70;;;9.25;;
22121;SDS011;11227;53.046;10.512;2022-10-31T20:58:31;13.85;;;8.52;;
22121;SDS011;11227;53.046;10.512;2022-10-31T21:02:33;14.75;;;8.38;;
22121;SDS011;11227;53.046;10.512;2022-10-31T21:06:34;13.43;;;7.78;;
22121;SDS011;11227;53.046;10.512;2022-10-31T21:10:37;14.27;;;9.45;;
22121;SDS011;11227;53.046;10.512;2022-10-31T21:14:40;14.05;;;9.13;;
22121;SDS011;11227;53.046;10.512;2022-10-31T21:18:42;16.00;;;8.43;;
22121;SDS011;11227;53.046;10.512;2022-10-31T21:22:44;14.15;;;8.60;;
22121;SDS011;11227;53.046;10.512;2022-10-31T21:26:47;13.55;;;7.88;;
22121;SDS011;11227;53.046;10.512;2022-10-31T21:30:50;14.13;;;8.40;;
22121;SDS011;11227;53.046;10.512;2022-10-31T21:34:52;15.52;;;8.02;;
22121;SDS011;11227;53.046;10.512;2022-10-31T21:38:54;12.55;;;8.13;;
22121;SDS011;11227;53.046;10.512;2022-10-31T21:42:56;14.75;;;9.52;;
22121;SDS011;11227;53.046;10.512;2022-10-31T21:51:13;13.02;;;8.95;;
22121;SDS011;11227;53.046;10.512;2022-10-31T21:55:16;14.55;;;9.57;;
22121;SDS011;11227;53.046;10.512;2022-10-31T21:59:18;14.43;;;9.35;;
22121;SDS011;11227;53.046;10.512;2022-10-31T22:03:20;17.38;;;10.10;;
22121;SDS011;11227;53.046;10.512;2022-10-31T22:07:21;14.52;;;9.18;;
22121;SDS011;11227;53.046;10.512;2022-10-31T22:11:23;13.73;;;9.30;;
22121;SDS011;11227;53.046;10.512;2022-10-31T22:15:25;15.82;;;9.32;;
22121;SDS011;11227;53.046;10.512;2022-10-31T22:19:27;14.93;;;9.32;;
22121;SDS011;11227;53.046;10.512;2022-10-31T22:23:28;16.10;;;10.00;;
22121;SDS011;11227;53.046;10.512;2022-10-31T22:27:31;17.67;;;9.95;;
22121;SDS011;11227;53.046;10.512;2022-10-31T22:31:33;18.70;;;10.73;;
22121;SDS011;11227;53.046;10.512;2022-10-31T22:35:37;16.73;;;10.30;;
22121;SDS011;11227;53.046;10.512;2022-10-31T22:39:39;15.57;;;9.75;;
22121;SDS011;11227;53.046;10.512;2022-10-31T22:43:40;19.33;;;10.40;;
22121;SDS011;11227;53.046;10.512;2022-10-31T22:47:42;20.25;;;10.98;;
22121;SDS011;11227;53.046;10.512;2022-10-31T22:51:44;18.90;;;9.80;;
22121;SDS011;11227;53.046;10.512;2022-10-31T22:55:48;20.80;;;11.15;;
22121;SDS011;11227;53.046;10.512;2022-10-31T22:59:50;18.73;;;11.77;;
22121;SDS011;11227;53.046;10.512;2022-10-31T23:03:51;17.88;;;10.55;;
22121;SDS011;11227;53.046;10.512;2022-10-31T23:07:53;21.52;;;11.15;;
22121;SDS011;11227;53.046;10.512;2022-10-31T23:11:55;18.52;;;11.43;;
22121;SDS011;11227;53.046;10.512;2022-10-31T23:16:16;21.52;;;10.98;;
22121;SDS011;11227;53.046;10.512;2022-10-31T23:20:18;23.10;;;11.27;;
22121;SDS011;11227;53.046;10.512;2022-10-31T23:24:20;18.05;;;11.45;;
22121;SDS011;11227;53.046;10.512;2022-10-31T23:28:25;20.23;;;11.95;;
22121;SDS011;11227;53.046;10.512;2022-10-31T23:32:34;21.15;;;12.45;;
22121;SDS011;11227;53.046;10.512;2022-10-31T23:36:37;19.15;;;11.20;;
22121;SDS011;11227;53.046;10.512;2022-10-31T23:40:39;19.10;;;10.68;;
22121;SDS011;11227;53.046;10.512;2022-10-31T23:44:40;19.40;;;11.52;;
22121;SDS011;11227;53.046;10.512;2022-10-31T23:48:42;22.00;;;11.43;;
22121;SDS011;11227;53.046;10.512;2022-10-31T23:52:48;22.00;;;10.73;;
22121;SDS011;11227;53.046;10.512;2022-10-31T23:56:49;21.30;;;11.57;;
